sensor_id;sensor_type;location;lat;lon;timestamp;pressure;altitude;pressure_sealevel;temperature;humidity
62712;BME280;48772;55.586;37.730;2023-04-23T00:02:09;98930.72;;;10.39;92.75
62712;BME280;48772;55.586;37.730;2023-04-23T00:04:37;99001.28;;;10.73;91.94
62712;BME280;48772;55.586;37.730;2023-04-23T00:07:04;98997.66;;;10.74;91.84
62712;BME280;48772;55.586;37.730;2023-04-23T00:09:30;98999.34;;;10.75;90.92
62712;BME280;48772;55.586;37.730;2023-04-23T00:12:00;99006.22;;;10.77;91.63
62712;BME280;48772;55.586;37.730;2023-04-23T00:14:29;98991.88;;;10.69;91.67
62712;BME280;48772;55.586;37.730;2023-04-23T00:16:55;99001.28;;;10.73;93.37
62712;BME280;48772;55.586;37.730;2023-04-23T00:19:21;99004.25;;;10.70;94.21
62712;BME280;48772;55.586;37.730;2023-04-23T00:21:47;98982.34;;;10.57;92.36
62712;BME280;48772;55.586;37.730;2023-04-23T00:24:12;99011.00;;;10.74;90.07
62712;BME280;48772;55.586;37.730;2023-04-23T00:26:38;98981.81;;;10.53;89.24
62712;BME280;48772;55.586;37.730;2023-04-23T00:29:04;98989.94;;;10.52;88.82
62712;BME280;48772;55.586;37.730;2023-04-23T00:31:29;99013.22;;;10.59;90.70
62712;BME280;48772;55.586;37.730;2023-04-23T00:33:55;99023.75;;;10.61;90.58
62712;BME280;48772;55.586;37.730;2023-04-23T00:36:21;98948.47;;;10.09;92.66
62712;BME280;48772;55.586;37.730;2023-04-23T00:38:48;99019.06;;;10.44;93.80
62712;BME280;48772;55.586;37.730;2023-04-23T00:41:14;99024.97;;;10.38;95.09
62712;BME280;48772;55.586;37.730;2023-04-23T00:43:40;99022.44;;;10.36;96.25
62712;BME280;48772;55.586;37.730;2023-04-23T00:46:06;99017.97;;;10.37;95.01
62712;BME280;48772;55.586;37.730;2023-04-23T00:48:33;99027.78;;;10.46;93.37
62712;BME280;48772;55.586;37.730;2023-04-23T00:51:04;99027.53;;;10.49;92.11
62712;BME280;48772;55.586;37.730;2023-04-23T00:53:31;99031.00;;;10.49;91.99
62712;BME280;48772;55.586;37.730;2023-04-23T00:55:58;98998.31;;;10.28;92.46
62712;BME280;48772;55.586;37.730;2023-04-23T00:58:27;99031.13;;;10.38;93.59
62712;BME280;48772;55.586;37.730;2023-04-23T01:00:53;99031.72;;;10.42;94.54
62712;BME280;48772;55.586;37.730;2023-04-23T01:03:19;99037.19;;;10.40;94.77
62712;BME280;48772;55.586;37.730;2023-04-23T01:05:47;99023.41;;;10.26;94.37
62712;BME280;48772;55.586;37.730;2023-04-23T01:08:15;99018.59;;;10.10;96.58
62712;BME280;48772;55.586;37.730;2023-04-23T01:10:44;99036.97;;;10.13;96.95
62712;BME280;48772;55.586;37.730;2023-04-23T01:13:15;99021.72;;;9.94;97.49
62712;BME280;48772;55.586;37.730;2023-04-23T01:15:42;99025.09;;;9.96;98.14
62712;BME280;48772;55.586;37.730;2023-04-23T01:18:08;99036.88;;;10.03;97.91
62712;BME280;48772;55.586;37.730;2023-04-23T01:20:34;99045.09;;;10.12;95.70
62712;BME280;48772;55.586;37.730;2023-04-23T01:23:01;99036.38;;;10.09;95.47
62712;BME280;48772;55.586;37.730;2023-04-23T01:25:27;99028.66;;;10.06;96.24
62712;BME280;48772;55.586;37.730;2023-04-23T01:27:53;98975.91;;;9.70;98.51
62712;BME280;48772;55.586;37.730;2023-04-23T01:30:20;99039.13;;;9.98;100.00
62712;BME280;48772;55.586;37.730;2023-04-23T01:32:47;99028.38;;;9.79;100.00
62712;BME280;48772;55.586;37.730;2023-04-23T01:35:13;99028.91;;;9.73;100.00
62712;BME280;48772;55.586;37.730;2023-04-23T01:37:41;99041.88;;;9.87;100.00
62712;BME280;48772;55.586;37.730;2023-04-23T01:40:08;99027.94;;;9.74;100.00
62712;BME280;48772;55.586;37.730;2023-04-23T01:42:35;99040.03;;;9.78;100.00
62712;BME280;48772;55.586;37.730;2023-04-23T01:45:02;99035.66;;;9.77;100.00
62712;BME280;48772;55.586;37.730;2023-04-23T01:47:31;99021.91;;;9.72;100.00
62712;BME280;48772;55.586;37.730;2023-04-23T01:49:57;99051.66;;;9.87;100.00
62712;BME280;48772;55.586;37.730;2023-04-23T01:52:24;99032.00;;;9.69;100.00
62712;BME280;48772;55.586;37.730;2023-04-23T01:54:49;99053.59;;;9.75;100.00
62712;BME280;48772;55.586;37.730;2023-04-23T01:57:16;99043.16;;;9.63;100.00
62712;BME280;48772;55.586;37.730;2023-04-23T01:59:49;99038.81;;;9.62;100.00
62712;BME280;48772;55.586;37.730;2023-04-23T02:02:15;99054.84;;;9.71;100.00
62712;BME280;48772;55.586;37.730;2023-04-23T02:04:43;99036.53;;;9.57;100.00
62712;BME280;48772;55.586;37.730;2023-04-23T02:07:10;99050.16;;;9.64;100.00
62712;BME280;48772;55.586;37.730;2023-04-23T02:09:36;99054.38;;;9.66;100.00
62712;BME280;48772;55.586;37.730;2023-04-23T02:12:04;99016.94;;;9.38;100.00
62712;BME280;48772;55.586;37.730;2023-04-23T02:14:30;99061.53;;;9.45;100.00
62712;BME280;48772;55.586;37.730;2023-04-23T02:16:56;99016.03;;;9.07;100.00
62712;BME280;48772;55.586;37.730;2023-04-23T02:19:22;99071.03;;;9.38;100.00
62712;BME280;48772;55.586;37.730;2023-04-23T02:21:48;99053.41;;;9.26;100.00
62712;BME280;48772;55.586;37.730;2023-04-23T02:24:13;99077.28;;;9.37;100.00
62712;BME280;48772;55.586;37.730;2023-04-23T02:26:39;99078.03;;;9.39;100.00
62712;BME280;48772;55.586;37.730;2023-04-23T02:29:05;99060.03;;;9.32;100.00
62712;BME280;48772;55.586;37.730;2023-04-23T02:31:31;99076.84;;;9.32;100.00
62712;BME280;48772;55.586;37.730;2023-04-23T02:33:57;99073.75;;;9.27;100.00
62712;BME280;48772;55.586;37.730;2023-04-23T02:36:22;99061.53;;;9.25;100.00
62712;BME280;48772;55.586;37.730;2023-04-23T02:38:48;99087.00;;;9.38;100.00
62712;BME280;48772;55.586;37.730;2023-04-23T02:41:15;99076.72;;;9.34;100.00
62712;BME280;48772;55.586;37.730;2023-04-23T02:43:41;99070.81;;;9.30;100.00
62712;BME280;48772;55.586;37.730;2023-04-23T02:46:07;99085.03;;;9.40;100.00
62712;BME280;48772;55.586;37.730;2023-04-23T02:48:40;99092.75;;;9.43;100.00
62712;BME280;48772;55.586;37.730;2023-04-23T02:51:10;99088.16;;;9.45;100.00
62712;BME280;48772;55.586;37.730;2023-04-23T02:53:36;99088.84;;;9.47;100.00
62712;BME280;48772;55.586;37.730;2023-04-23T02:56:02;99084.25;;;9.49;100.00
62712;BME280;48772;55.586;37.730;2023-04-23T02:58:29;99062.91;;;9.40;100.00
62712;BME280;48772;55.586;37.730;2023-04-23T03:00:58;99095.78;;;9.59;100.00
62712;BME280;48772;55.586;37.730;2023-04-23T03:03:26;99073.88;;;9.46;100.00
62712;BME280;48772;55.586;37.730;2023-04-23T03:05:57;99078.41;;;9.55;100.00
62712;BME280;48772;55.586;37.730;2023-04-23T03:08:23;99106.25;;;9.72;100.00
62712;BME280;48772;55.586;37.730;2023-04-23T03:10:48;99104.19;;;9.75;100.00
62712;BME280;48772;55.586;37.730;2023-04-23T03:13:15;99107.28;;;9.80;100.00
62712;BME280;48772;55.586;37.730;2023-04-23T03:15:41;99091.13;;;9.72;100.00
62712;BME280;48772;55.586;37.730;2023-04-23T03:18:07;99113.78;;;9.87;100.00
62712;BME280;48772;55.586;37.730;2023-04-23T03:20:35;99110.16;;;9.98;100.00
62712;BME280;48772;55.586;37.730;2023-04-23T03:23:01;99102.19;;;9.98;100.00
62712;BME280;48772;55.586;37.730;2023-04-23T03:25:27;99105.00;;;9.96;100.00
62712;BME280;48772;55.586;37.730;2023-04-23T03:27:53;99116.56;;;10.06;100.00
62712;BME280;48772;55.586;37.730;2023-04-23T03:30:19;99100.38;;;9.98;100.00
62712;BME280;48772;55.586;37.730;2023-04-23T03:32:45;99117.28;;;10.08;100.00
62712;BME280;48772;55.586;37.730;2023-04-23T03:35:11;99107.63;;;10.07;100.00
62712;BME280;48772;55.586;37.730;2023-04-23T03:37:41;99122.41;;;10.21;100.00
62712;BME280;48772;55.586;37.730;2023-04-23T03:40:08;99125.75;;;10.23;99.55
62712;BME280;48772;55.586;37.730;2023-04-23T03:42:37;99125.78;;;10.33;97.70
62712;BME280;48772;55.586;37.730;2023-04-23T03:45:04;99116.88;;;10.43;93.83
62712;BME280;48772;55.586;37.730;2023-04-23T03:47:30;99113.66;;;10.49;91.95
62712;BME280;48772;55.586;37.730;2023-04-23T03:49:56;99104.22;;;10.45;95.64
62712;BME280;48772;55.586;37.730;2023-04-23T03:52:24;99120.97;;;10.57;96.30
62712;BME280;48772;55.586;37.730;2023-04-23T03:54:51;99101.88;;;10.52;95.37
62712;BME280;48772;55.586;37.730;2023-04-23T03:57:20;99137.19;;;10.84;94.00
62712;BME280;48772;55.586;37.730;2023-04-23T03:59:55;99145.38;;;11.01;92.27
62712;BME280;48772;55.586;37.730;2023-04-23T04:02:21;99117.69;;;10.93;100.00
62712;BME280;48772;55.586;37.730;2023-04-23T04:04:50;99118.25;;;10.87;100.00
62712;BME280;48772;55.586;37.730;2023-04-23T04:07:17;99125.00;;;11.00;95.56
62712;BME280;48772;55.586;37.730;2023-04-23T04:09:43;99152.13;;;11.05;100.00
62712;BME280;48772;55.586;37.730;2023-04-23T04:12:08;99162.06;;;10.94;100.00
62712;BME280;48772;55.586;37.730;2023-04-23T04:14:34;99161.38;;;10.92;100.00
62712;BME280;48772;55.586;37.730;2023-04-23T04:17:00;99163.03;;;10.93;100.00
62712;BME280;48772;55.586;37.730;2023-04-23T04:19:26;99129.03;;;10.76;100.00
62712;BME280;48772;55.586;37.730;2023-04-23T04:21:51;99160.25;;;11.04;100.00
62712;BME280;48772;55.586;37.730;2023-04-23T04:24:17;99161.25;;;11.12;100.00
62712;BME280;48772;55.586;37.730;2023-04-23T04:26:43;99141.31;;;11.16;100.00
62712;BME280;48772;55.586;37.730;2023-04-23T04:29:10;99164.94;;;11.40;100.00
62712;BME280;48772;55.586;37.730;2023-04-23T04:31:36;99159.28;;;11.43;100.00
62712;BME280;48772;55.586;37.730;2023-04-23T04:34:03;99147.78;;;11.52;95.82
62712;BME280;48772;55.586;37.730;2023-04-23T04:36:28;99150.19;;;11.74;98.85
62712;BME280;48772;55.586;37.730;2023-04-23T04:38:54;99149.72;;;11.97;98.03
62712;BME280;48772;55.586;37.730;2023-04-23T04:41:25;99163.50;;;12.02;99.21
62712;BME280;48772;55.586;37.730;2023-04-23T04:43:52;99175.00;;;12.12;96.20
62712;BME280;48772;55.586;37.730;2023-04-23T04:46:19;99135.69;;;11.86;94.54
62712;BME280;48772;55.586;37.730;2023-04-23T04:48:46;99167.19;;;11.82;98.48
62712;BME280;48772;55.586;37.730;2023-04-23T04:51:12;99166.63;;;11.60;100.00
62712;BME280;48772;55.586;37.730;2023-04-23T04:53:38;99182.09;;;11.75;100.00
62712;BME280;48772;55.586;37.730;2023-04-23T04:56:04;99173.38;;;11.73;100.00
62712;BME280;48772;55.586;37.730;2023-04-23T04:58:30;99174.31;;;12.01;100.00
62712;BME280;48772;55.586;37.730;2023-04-23T05:00:57;99167.78;;;12.32;100.00
62712;BME280;48772;55.586;37.730;2023-04-23T05:03:42;99176.78;;;12.67;97.22
62712;BME280;48772;55.586;37.730;2023-04-23T05:06:08;99178.66;;;12.94;94.24
62712;BME280;48772;55.586;37.730;2023-04-23T05:08:34;99181.59;;;13.18;92.10
62712;BME280;48772;55.586;37.730;2023-04-23T05:11:00;99189.38;;;13.56;89.92
62712;BME280;48772;55.586;37.730;2023-04-23T05:13:26;99175.91;;;13.83;88.35
62712;BME280;48772;55.586;37.730;2023-04-23T05:15:52;99183.56;;;14.21;87.73
62712;BME280;48772;55.586;37.730;2023-04-23T05:18:17;99184.44;;;14.47;87.20
62712;BME280;48772;55.586;37.730;2023-04-23T05:20:44;99191.09;;;14.69;82.68
62712;BME280;48772;55.586;37.730;2023-04-23T05:23:10;99191.28;;;14.75;77.99
62712;BME280;48772;55.586;37.730;2023-04-23T05:25:36;99180.47;;;14.93;76.96
62712;BME280;48772;55.586;37.730;2023-04-23T05:28:02;99198.09;;;14.95;78.25
62712;BME280;48772;55.586;37.730;2023-04-23T05:30:28;99195.91;;;14.91;78.07
62712;BME280;48772;55.586;37.730;2023-04-23T05:32:53;99187.84;;;14.91;78.22
62712;BME280;48772;55.586;37.730;2023-04-23T05:35:19;99193.72;;;14.94;78.25
62712;BME280;48772;55.586;37.730;2023-04-23T05:37:45;99190.22;;;14.94;77.88
62712;BME280;48772;55.586;37.730;2023-04-23T05:40:11;99173.06;;;14.87;75.75
62712;BME280;48772;55.586;37.730;2023-04-23T05:42:37;99187.22;;;14.97;72.18
62712;BME280;48772;55.586;37.730;2023-04-23T05:45:04;99190.41;;;15.08;71.39
62712;BME280;48772;55.586;37.730;2023-04-23T05:47:32;99116.13;;;14.75;71.57
62712;BME280;48772;55.586;37.730;2023-04-23T05:49:59;99173.38;;;15.33;65.92
62712;BME280;48772;55.586;37.730;2023-04-23T05:52:27;99194.59;;;15.44;61.68
62712;BME280;48772;55.586;37.730;2023-04-23T05:54:56;99194.00;;;15.98;56.44
62712;BME280;48772;55.586;37.730;2023-04-23T05:57:21;99184.56;;;15.94;53.88
62712;BME280;48772;55.586;37.730;2023-04-23T05:59:47;99190.63;;;16.04;52.46
62712;BME280;48772;55.586;37.730;2023-04-23T06:02:13;99207.06;;;16.25;51.04
62712;BME280;48772;55.586;37.730;2023-04-23T06:04:39;99196.84;;;16.29;50.45
62712;BME280;48772;55.586;37.730;2023-04-23T06:07:05;99182.69;;;16.35;50.36
62712;BME280;48772;55.586;37.730;2023-04-23T06:09:31;99209.75;;;16.58;49.99
62712;BME280;48772;55.586;37.730;2023-04-23T06:11:57;99200.03;;;16.49;49.25
62712;BME280;48772;55.586;37.730;2023-04-23T06:14:24;99213.47;;;16.57;48.51
62712;BME280;48772;55.586;37.730;2023-04-23T06:16:50;99201.19;;;16.54;48.73
62712;BME280;48772;55.586;37.730;2023-04-23T06:19:15;99207.38;;;16.63;47.36
62712;BME280;48772;55.586;37.730;2023-04-23T06:21:41;99208.69;;;16.83;47.16
62712;BME280;48772;55.586;37.730;2023-04-23T06:24:07;99216.66;;;17.07;45.26
62712;BME280;48772;55.586;37.730;2023-04-23T06:26:33;99220.75;;;16.95;45.29
62712;BME280;48772;55.586;37.730;2023-04-23T06:29:04;99205.19;;;16.74;44.55
62712;BME280;48772;55.586;37.730;2023-04-23T06:31:34;99215.41;;;16.87;44.43
62712;BME280;48772;55.586;37.730;2023-04-23T06:34:00;99174.41;;;16.69;44.57
62712;BME280;48772;55.586;37.730;2023-04-23T06:36:26;99217.03;;;17.04;43.75
62712;BME280;48772;55.586;37.730;2023-04-23T06:38:52;99233.47;;;17.17;43.96
62712;BME280;48772;55.586;37.730;2023-04-23T06:41:18;99238.06;;;17.08;42.62
62712;BME280;48772;55.586;37.730;2023-04-23T06:43:45;99228.25;;;17.15;43.31
62712;BME280;48772;55.586;37.730;2023-04-23T06:46:20;99235.19;;;17.79;41.80
62712;BME280;48772;55.586;37.730;2023-04-23T06:48:45;99233.41;;;18.16;40.71
62712;BME280;48772;55.586;37.730;2023-04-23T06:51:11;99231.50;;;18.25;40.70
62712;BME280;48772;55.586;37.730;2023-04-23T06:53:37;99238.91;;;18.23;40.80
62712;BME280;48772;55.586;37.730;2023-04-23T06:56:03;99237.84;;;18.32;40.33
62712;BME280;48772;55.586;37.730;2023-04-23T06:58:29;99243.13;;;18.48;39.45
62712;BME280;48772;55.586;37.730;2023-04-23T07:01:00;99222.97;;;18.73;38.94
62712;BME280;48772;55.586;37.730;2023-04-23T07:03:31;99241.09;;;18.50;38.41
62712;BME280;48772;55.586;37.730;2023-04-23T07:05:57;99241.44;;;18.47;39.09
62712;BME280;48772;55.586;37.730;2023-04-23T07:08:23;99246.25;;;18.74;38.85
62712;BME280;48772;55.586;37.730;2023-04-23T07:10:48;99245.59;;;18.72;39.20
62712;BME280;48772;55.586;37.730;2023-04-23T07:13:14;99233.66;;;18.95;38.88
62712;BME280;48772;55.586;37.730;2023-04-23T07:15:41;99236.56;;;18.94;39.26
62712;BME280;48772;55.586;37.730;2023-04-23T07:18:07;99219.78;;;18.69;38.05
62712;BME280;48772;55.586;37.730;2023-04-23T07:20:33;99247.38;;;19.08;36.34
62712;BME280;48772;55.586;37.730;2023-04-23T07:22:59;99230.47;;;18.63;36.43
62712;BME280;48772;55.586;37.730;2023-04-23T07:25:25;99219.97;;;19.26;36.12
62712;BME280;48772;55.586;37.730;2023-04-23T07:27:52;99233.69;;;19.10;35.04
62712;BME280;48772;55.586;37.730;2023-04-23T07:30:22;99235.53;;;19.24;36.28
62712;BME280;48772;55.586;37.730;2023-04-23T07:32:48;99214.44;;;19.48;35.41
62712;BME280;48772;55.586;37.730;2023-04-23T07:35:14;99233.16;;;20.00;35.68
62712;BME280;48772;55.586;37.730;2023-04-23T07:37:40;99198.09;;;20.13;35.05
62712;BME280;48772;55.586;37.730;2023-04-23T07:40:06;99226.84;;;20.63;35.37
62712;BME280;48772;55.586;37.730;2023-04-23T07:42:33;99227.53;;;20.71;34.45
62712;BME280;48772;55.586;37.730;2023-04-23T07:44:59;99219.09;;;20.32;35.25
62712;BME280;48772;55.586;37.730;2023-04-23T07:47:25;99235.44;;;19.82;35.53
62712;BME280;48772;55.586;37.730;2023-04-23T07:49:51;99232.69;;;19.97;35.65
62712;BME280;48772;55.586;37.730;2023-04-23T07:52:17;99242.31;;;19.64;36.37
62712;BME280;48772;55.586;37.730;2023-04-23T07:54:43;99202.22;;;19.52;36.12
62712;BME280;48772;55.586;37.730;2023-04-23T07:57:09;99242.38;;;19.70;32.75
62712;BME280;48772;55.586;37.730;2023-04-23T07:59:36;99228.59;;;19.65;32.06
62712;BME280;48772;55.586;37.730;2023-04-23T08:02:05;99213.56;;;19.27;31.69
62712;BME280;48772;55.586;37.730;2023-04-23T08:04:31;99230.78;;;18.97;32.34
62712;BME280;48772;55.586;37.730;2023-04-23T08:06:57;99230.31;;;19.37;30.83
62712;BME280;48772;55.586;37.730;2023-04-23T08:09:23;99236.84;;;18.99;32.17
62712;BME280;48772;55.586;37.730;2023-04-23T08:11:50;99234.25;;;18.91;32.47
62712;BME280;48772;55.586;37.730;2023-04-23T08:14:17;99222.19;;;19.08;32.46
62712;BME280;48772;55.586;37.730;2023-04-23T08:16:43;99245.16;;;18.83;31.59
62712;BME280;48772;55.586;37.730;2023-04-23T08:19:09;99233.75;;;18.73;32.16
62712;BME280;48772;55.586;37.730;2023-04-23T08:21:37;99198.78;;;18.57;32.87
62712;BME280;48772;55.586;37.730;2023-04-23T08:24:03;99217.69;;;18.57;33.38
62712;BME280;48772;55.586;37.730;2023-04-23T08:26:30;99228.81;;;18.62;32.40
62712;BME280;48772;55.586;37.730;2023-04-23T08:28:56;99191.22;;;18.38;32.62
62712;BME280;48772;55.586;37.730;2023-04-23T08:31:22;99225.78;;;18.42;32.46
62712;BME280;48772;55.586;37.730;2023-04-23T08:33:47;99224.75;;;18.43;32.29
62712;BME280;48772;55.586;37.730;2023-04-23T08:36:13;99232.78;;;18.51;32.41
62712;BME280;48772;55.586;37.730;2023-04-23T08:38:40;99228.34;;;17.99;31.59
62712;BME280;48772;55.586;37.730;2023-04-23T08:41:09;99224.97;;;18.34;32.26
62712;BME280;48772;55.586;37.730;2023-04-23T08:44:02;99227.59;;;18.64;32.65
62712;BME280;48772;55.586;37.730;2023-04-23T08:46:30;99200.84;;;18.55;32.08
62712;BME280;48772;55.586;37.730;2023-04-23T08:48:59;99226.97;;;18.77;31.72
62712;BME280;48772;55.586;37.730;2023-04-23T08:51:29;99228.38;;;19.02;31.03
62712;BME280;48772;55.586;37.730;2023-04-23T08:54:03;99226.69;;;19.15;31.24
62712;BME280;48772;55.586;37.730;2023-04-23T08:56:31;99203.47;;;19.21;31.63
62712;BME280;48772;55.586;37.730;2023-04-23T08:58:57;99221.47;;;19.43;31.46
62712;BME280;48772;55.586;37.730;2023-04-23T09:01:24;99213.09;;;19.38;30.75
62712;BME280;48772;55.586;37.730;2023-04-23T09:03:51;99213.03;;;19.52;30.41
62712;BME280;48772;55.586;37.730;2023-04-23T09:06:18;99218.00;;;19.49;30.35
62712;BME280;48772;55.586;37.730;2023-04-23T09:08:44;99213.28;;;19.72;30.27
62712;BME280;48772;55.586;37.730;2023-04-23T09:11:29;99196.50;;;21.01;28.72
62712;BME280;48772;55.586;37.730;2023-04-23T09:13:56;99199.78;;;21.97;27.96
62712;BME280;48772;55.586;37.730;2023-04-23T09:16:22;99206.91;;;21.98;27.82
62712;BME280;48772;55.586;37.730;2023-04-23T09:18:47;99201.91;;;22.21;27.55
62712;BME280;48772;55.586;37.730;2023-04-23T09:21:16;99188.53;;;22.46;26.96
62712;BME280;48772;55.586;37.730;2023-04-23T09:23:42;99191.66;;;21.31;28.17
62712;BME280;48772;55.586;37.730;2023-04-23T09:26:07;99182.94;;;20.74;29.17
62712;BME280;48772;55.586;37.730;2023-04-23T09:28:36;99156.13;;;20.51;29.24
62712;BME280;48772;55.586;37.730;2023-04-23T09:31:05;99199.97;;;21.76;28.63
62712;BME280;48772;55.586;37.730;2023-04-23T09:33:35;99202.78;;;22.22;27.42
62712;BME280;48772;55.586;37.730;2023-04-23T09:36:24;99180.66;;;22.51;26.81
62712;BME280;48772;55.586;37.730;2023-04-23T09:38:55;99196.69;;;22.92;26.00
62712;BME280;48772;55.586;37.730;2023-04-23T09:41:26;99180.81;;;22.69;26.02
62712;BME280;48772;55.586;37.730;2023-04-23T09:43:53;99168.91;;;22.70;25.60
62712;BME280;48772;55.586;37.730;2023-04-23T09:46:35;99183.06;;;23.05;25.61
62712;BME280;48772;55.586;37.730;2023-04-23T09:49:02;99182.91;;;23.44;25.56
62712;BME280;48772;55.586;37.730;2023-04-23T09:51:31;99167.44;;;23.44;25.10
62712;BME280;48772;55.586;37.730;2023-04-23T09:53:58;99179.72;;;23.60;25.02
62712;BME280;48772;55.586;37.730;2023-04-23T09:56:26;99172.78;;;23.07;24.97
62712;BME280;48772;55.586;37.730;2023-04-23T09:58:52;99178.16;;;23.33;24.58
62712;BME280;48772;55.586;37.730;2023-04-23T10:01:26;99184.66;;;23.32;24.28
62712;BME280;48772;55.586;37.730;2023-04-23T10:03:52;99210.06;;;22.80;24.68
62712;BME280;48772;55.586;37.730;2023-04-23T10:06:18;99185.81;;;22.85;24.89
62712;BME280;48772;55.586;37.730;2023-04-23T10:08:45;99175.25;;;23.28;24.61
62712;BME280;48772;55.586;37.730;2023-04-23T10:11:11;99164.94;;;23.43;24.10
62712;BME280;48772;55.586;37.730;2023-04-23T10:13:37;99158.72;;;24.04;23.76
62712;BME280;48772;55.586;37.730;2023-04-23T10:16:03;99138.59;;;22.60;25.47
62712;BME280;48772;55.586;37.730;2023-04-23T10:18:31;99154.22;;;21.73;26.41
62712;BME280;48772;55.586;37.730;2023-04-23T10:21:16;99140.06;;;22.17;26.16
62712;BME280;48772;55.586;37.730;2023-04-23T10:23:43;99149.53;;;23.24;24.68
62712;BME280;48772;55.586;37.730;2023-04-23T10:26:11;99158.75;;;23.67;24.84
62712;BME280;48772;55.586;37.730;2023-04-23T10:28:39;99153.03;;;23.75;24.47
62712;BME280;48772;55.586;37.730;2023-04-23T10:31:05;99152.59;;;22.57;25.51
62712;BME280;48772;55.586;37.730;2023-04-23T10:33:32;99160.56;;;22.59;25.22
62712;BME280;48772;55.586;37.730;2023-04-23T10:35:58;99154.59;;;23.07;25.49
62712;BME280;48772;55.586;37.730;2023-04-23T10:38:25;99159.34;;;23.69;24.50
62712;BME280;48772;55.586;37.730;2023-04-23T10:40:54;99154.00;;;23.87;24.83
62712;BME280;48772;55.586;37.730;2023-04-23T10:43:22;99131.78;;;23.90;23.55
62712;BME280;48772;55.586;37.730;2023-04-23T10:45:49;99147.31;;;23.52;24.02
62712;BME280;48772;55.586;37.730;2023-04-23T10:48:16;99160.72;;;23.47;24.15
62712;BME280;48772;55.586;37.730;2023-04-23T10:50:42;99157.31;;;23.58;24.08
62712;BME280;48772;55.586;37.730;2023-04-23T10:53:19;99138.50;;;23.87;23.85
62712;BME280;48772;55.586;37.730;2023-04-23T10:55:46;99124.13;;;23.74;23.54
62712;BME280;48772;55.586;37.730;2023-04-23T10:58:13;99125.41;;;23.34;23.92
62712;BME280;48772;55.586;37.730;2023-04-23T11:06:02;99136.16;;;24.22;23.52
62712;BME280;48772;55.586;37.730;2023-04-23T11:08:53;99143.75;;;23.01;23.80
62712;BME280;48772;55.586;37.730;2023-04-23T11:11:26;99134.09;;;23.86;23.58
62712;BME280;48772;55.586;37.730;2023-04-23T11:14:10;99084.13;;;23.37;23.57
62712;BME280;48772;55.586;37.730;2023-04-23T11:16:38;99142.41;;;23.67;23.43
62712;BME280;48772;55.586;37.730;2023-04-23T11:19:08;99137.06;;;23.85;23.69
62712;BME280;48772;55.586;37.730;2023-04-23T11:22:13;99130.97;;;23.83;23.90
62712;BME280;48772;55.586;37.730;2023-04-23T11:24:42;99120.44;;;23.62;23.96
62712;BME280;48772;55.586;37.730;2023-04-23T11:27:29;99136.59;;;23.88;23.48
62712;BME280;48772;55.586;37.730;2023-04-23T11:29:55;99120.97;;;24.32;23.29
62712;BME280;48772;55.586;37.730;2023-04-23T11:32:21;99123.97;;;24.49;23.76
62712;BME280;48772;55.586;37.730;2023-04-23T11:34:49;99122.63;;;23.47;23.48
62712;BME280;48772;55.586;37.730;2023-04-23T11:37:17;99110.91;;;23.77;23.80
62712;BME280;48772;55.586;37.730;2023-04-23T11:39:44;99116.25;;;23.97;23.30
62712;BME280;48772;55.586;37.730;2023-04-23T11:42:16;99135.06;;;23.30;23.55
62712;BME280;48772;55.586;37.730;2023-04-23T11:45:03;99134.66;;;23.26;23.73
62712;BME280;48772;55.586;37.730;2023-04-23T11:47:30;99128.31;;;23.39;23.52
62712;BME280;48772;55.586;37.730;2023-04-23T11:50:00;99120.53;;;23.42;23.53
62712;BME280;48772;55.586;37.730;2023-04-23T11:52:25;99114.31;;;23.35;23.67
62712;BME280;48772;55.586;37.730;2023-04-23T11:54:51;99118.06;;;23.41;23.79
62712;BME280;48772;55.586;37.730;2023-04-23T11:57:17;99140.84;;;22.83;24.17
62712;BME280;48772;55.586;37.730;2023-04-23T11:59:43;99127.75;;;23.24;23.78
62712;BME280;48772;55.586;37.730;2023-04-23T12:02:08;99117.06;;;23.66;23.19
62712;BME280;48772;55.586;37.730;2023-04-23T12:04:35;99123.72;;;23.33;22.80
62712;BME280;48772;55.586;37.730;2023-04-23T12:07:00;99115.56;;;23.39;23.11
62712;BME280;48772;55.586;37.730;2023-04-23T12:09:28;99112.16;;;23.44;22.39
62712;BME280;48772;55.586;37.730;2023-04-23T12:11:55;99115.41;;;23.28;22.92
62712;BME280;48772;55.586;37.730;2023-04-23T12:14:25;99113.47;;;23.35;23.49
62712;BME280;48772;55.586;37.730;2023-04-23T12:16:53;99115.81;;;23.25;23.52
62712;BME280;48772;55.586;37.730;2023-04-23T12:19:27;99095.34;;;23.09;23.65
62712;BME280;48772;55.586;37.730;2023-04-23T12:21:55;99102.31;;;22.99;23.72
62712;BME280;48772;55.586;37.730;2023-04-23T12:24:25;99123.00;;;23.00;23.79
62712;BME280;48772;55.586;37.730;2023-04-23T12:26:52;99122.69;;;22.64;23.79
62712;BME280;48772;55.586;37.730;2023-04-23T12:29:20;99106.09;;;22.91;23.65
62712;BME280;48772;55.586;37.730;2023-04-23T12:31:48;99106.31;;;22.90;23.59
62712;BME280;48772;55.586;37.730;2023-04-23T12:34:14;99086.47;;;22.83;23.60
62712;BME280;48772;55.586;37.730;2023-04-23T12:36:52;99118.81;;;23.04;23.37
62712;BME280;48772;55.586;37.730;2023-04-23T12:39:30;99102.50;;;22.97;23.55
62712;BME280;48772;55.586;37.730;2023-04-23T12:41:59;99096.88;;;22.99;23.53
62712;BME280;48772;55.586;37.730;2023-04-23T12:44:28;99070.25;;;22.50;23.84
62712;BME280;48772;55.586;37.730;2023-04-23T12:46:59;99099.09;;;23.21;23.44
62712;BME280;48772;55.586;37.730;2023-04-23T12:49:35;99096.44;;;23.02;23.39
62712;BME280;48772;55.586;37.730;2023-04-23T12:52:05;99087.47;;;22.95;23.51
62712;BME280;48772;55.586;37.730;2023-04-23T12:54:40;99094.63;;;22.76;24.16
62712;BME280;48772;55.586;37.730;2023-04-23T12:57:09;99081.53;;;22.54;23.95
62712;BME280;48772;55.586;37.730;2023-04-23T12:59:35;99103.06;;;22.35;24.18